| time (UTC) | temp F | wind direction | speed knots | gust knots | rain 1hr in | rain 24hr in | rain mn in | humidity % | barometer mb |
| 20260504100328 | 46 | 159 | 1.7 | 3.5 | 0.00 | 0.00 | 0.00 | 60 | 1014.5 |
| 20260504081818 | 47 | 180 | 0.0 | 0.0 | 0.00 | 0.00 | 0.00 | 64 | 1014.8 |
| 20260504081318 | 47 | 180 | 0.0 | 0.0 | 0.00 | 0.00 | 0.00 | 59 | 1014.7 |
| 20260504080824 | 47 | 180 | 0.0 | 0.0 | 0.00 | 0.00 | 0.00 | 57 | 1014.7 |
| 20260504080317 | 46 | 180 | 0.0 | 0.0 | 0.00 | 0.00 | 0.00 | 58 | 1014.6 |
| 20260504070308 | 42 | 180 | 0.0 | 0.0 | 0.00 | 0.00 | 0.00 | 67 | 1015.0 |
| 20260504050312 | 45 | 228 | 2.6 | 3.5 | 0.00 | 0.00 | 0.00 | 61 | 1015.4 |
| 20260504045808 | 44 | 227 | 2.6 | 3.5 | 0.00 | 0.00 | 0.00 | 61 | 1015.5 |
| 20260504045308 | 44 | 228 | 1.7 | 3.5 | 0.00 | 0.00 | 0.00 | 61 | 1015.5 |
| 20260504044807 | 44 | 228 | 0.9 | 3.5 | 0.00 | 0.00 | 0.00 | 61 | 1015.6 |
| 20260504044309 | 44 | 240 | 0.9 | 1.7 | 0.00 | 0.00 | 0.00 | 62 | 1015.5 |
| 20260504043809 | 44 | 240 | 0.0 | 1.7 | 0.00 | 0.00 | 0.00 | 62 | 1015.4 |
| 20260504043308 | 44 | 240 | 0.9 | 3.5 | 0.00 | 0.00 | 0.00 | 61 | 1015.4 |
| 20260504042809 | 45 | 240 | 1.7 | 3.5 | 0.00 | 0.00 | 0.00 | 61 | 1015.4 |
| 20260504042308 | 45 | 237 | 1.7 | 3.5 | 0.00 | 0.00 | 0.00 | 60 | 1015.4 |
| 20260504041809 | 45 | 237 | 1.7 | 5.2 | 0.00 | 0.00 | 0.00 | 61 | 1015.4 |
| 20260504041307 | 44 | 237 | 1.7 | 5.2 | 0.00 | 0.00 | 0.00 | 60 | 1015.3 |
| 20260504040811 | 44 | 249 | 1.7 | 3.5 | 0.00 | 0.00 | 0.00 | 60 | 1015.4 |
| 20260504040305 | 44 | 255 | 0.9 | 3.5 | 0.00 | 0.00 | 0.00 | 61 | 1015.3 |
| 20260504035803 | 45 | 257 | 0.0 | 3.5 | 0.00 | 0.00 | 0.00 | 61 | 1015.2 |
| 20260504035257 | 45 | 259 | 0.0 | 1.7 | 0.00 | 0.00 | 0.00 | 60 | 1015.1 |
| 20260504034755 | 45 | 259 | 0.0 | 2.6 | 0.00 | 0.00 | 0.00 | 60 | 1015.1 |
| 20260504034256 | 45 | 259 | 0.9 | 4.3 | 0.00 | 0.00 | 0.00 | 59 | 1015.1 |
| 20260504033759 | 45 | 259 | 0.9 | 4.3 | 0.00 | 0.00 | 0.00 | 60 | 1015.1 |
| 20260504033253 | 45 | 259 | 0.9 | 2.6 | 0.00 | 0.00 | 0.00 | 60 | 1015.1 |
| 20260504032751 | 45 | 258 | 0.9 | 1.7 | 0.00 | 0.00 | 0.00 | 60 | 1015.1 |
| 20260504032254 | 45 | 257 | 0.0 | 1.7 | 0.00 | 0.00 | 0.00 | 61 | 1015.1 |
| 20260504031753 | 45 | 258 | 0.0 | 1.7 | 0.00 | 0.00 | 0.00 | 59 | 1015.1 |
| 20260504031253 | 46 | 258 | 0.0 | 0.9 | 0.00 | 0.00 | 0.00 | 59 | 1015.2 |
| 20260504030750 | 46 | 258 | 0.0 | 0.9 | 0.00 | 0.00 | 0.00 | 58 | 1014.9 |
| 20260504030248 | 46 | 258 | 0.0 | 0.9 | 0.00 | 0.00 | 0.00 | 59 | 1015.2 |
| 20260504025744 | 46 | 258 | 0.0 | 0.9 | 0.00 | 0.00 | 0.00 | 58 | 1015.1 |
| 20260504025242 | 46 | 258 | 0.0 | 0.9 | 0.00 | 0.00 | 0.00 | 57 | 1015.0 |
| 20260504024742 | 46 | 258 | 0.0 | 2.6 | 0.00 | 0.00 | 0.00 | 57 | 1015.0 |
| 20260504024241 | 46 | 258 | 0.0 | 2.6 | 0.00 | 0.00 | 0.00 | 55 | 1015.0 |
| 20260504023740 | 46 | 259 | 0.0 | 0.9 | 0.00 | 0.00 | 0.00 | 58 | 1015.1 |
| 20260504023243 | 46 | 259 | 0.0 | 0.9 | 0.00 | 0.00 | 0.00 | 58 | 1015.0 |
| 20260504022736 | 46 | 259 | 0.0 | 0.9 | 0.00 | 0.00 | 0.00 | 60 | 1014.9 |
| 20260504022238 | 47 | 259 | 0.0 | 0.9 | 0.00 | 0.00 | 0.00 | 58 | 1014.9 |
| 20260504021741 | 47 | 259 | 0.0 | 0.9 | 0.00 | 0.00 | 0.00 | 56 | 1014.9 |
| 20260504021238 | 47 | 259 | 0.0 | 1.7 | 0.00 | 0.00 | 0.00 | 58 | 1014.9 |
| 20260504020740 | 47 | 259 | 0.0 | 1.7 | 0.00 | 0.00 | 0.00 | 56 | 1014.9 |
| 20260504020235 | 47 | 259 | 0.0 | 1.7 | 0.00 | 0.00 | 0.00 | 56 | 1014.8 |
| 20260504015734 | 47 | 259 | 0.0 | 1.7 | 0.00 | 0.00 | 0.00 | 55 | 1014.8 |
| 20260504015235 | 48 | 259 | 0.0 | 2.6 | 0.00 | 0.00 | 0.00 | 55 | 1014.7 |
| 20260504014734 | 48 | 259 | 0.0 | 2.6 | 0.00 | 0.00 | 0.00 | 55 | 1014.7 |
| 20260504014231 | 48 | 259 | 0.0 | 1.7 | 0.00 | 0.00 | 0.00 | 53 | 1014.8 |
| 20260504013731 | 48 | 259 | 0.0 | 1.7 | 0.00 | 0.00 | 0.00 | 54 | 1014.7 |
| 20260504013231 | 48 | 259 | 0.0 | 1.7 | 0.00 | 0.00 | 0.00 | 54 | 1014.6 |
| 20260504012730 | 49 | 259 | 0.0 | 2.6 | 0.00 | 0.00 | 0.00 | 53 | 1014.6 |
| 20260504012230 | 49 | 259 | 0.9 | 2.6 | 0.00 | 0.00 | 0.00 | 51 | 1014.5 |
| 20260504011727 | 49 | 259 | 0.9 | 4.3 | 0.00 | 0.00 | 0.00 | 53 | 1014.5 |
| 20260504011227 | 49 | 259 | 1.7 | 6.1 | 0.00 | 0.00 | 0.00 | 52 | 1014.4 |
| 20260504010724 | 49 | 276 | 1.7 | 6.1 | 0.00 | 0.00 | 0.00 | 51 | 1014.5 |
| 20260504010222 | 49 | 262 | 1.7 | 3.5 | 0.00 | 0.00 | 0.00 | 52 | 1014.6 |
| 20260504005722 | 49 | 259 | 0.9 | 3.5 | 0.00 | 0.00 | 0.00 | 52 | 1014.6 |
| 20260504005223 | 49 | 264 | 0.9 | 2.6 | 0.00 | 0.00 | 0.00 | 51 | 1014.5 |
| 20260504004723 | 49 | 264 | 0.9 | 2.6 | 0.00 | 0.00 | 0.00 | 51 | 1014.5 |
| 20260504004223 | 49 | 264 | 0.9 | 4.3 | 0.00 | 0.00 | 0.00 | 51 | 1014.4 |
| 20260504003727 | 50 | 264 | 0.9 | 4.3 | 0.00 | 0.00 | 0.00 | 51 | 1014.5 |
| 20260504003222 | 50 | 267 | 0.0 | 0.9 | 0.00 | 0.00 | 0.00 | 50 | 1014.4 |
| 20260504002722 | 50 | 267 | 0.0 | 2.6 | 0.00 | 0.00 | 0.00 | 49 | 1014.3 |
| 20260504002222 | 51 | 267 | 0.0 | 2.6 | 0.00 | 0.00 | 0.00 | 49 | 1014.4 |
| 20260504001720 | 51 | 267 | 0.0 | 2.6 | 0.00 | 0.00 | 0.00 | 48 | 1014.3 |
| 20260504001218 | 51 | 267 | 0.9 | 6.1 | 0.00 | 0.00 | 0.00 | 49 | 1014.3 |
| 20260504000717 | 52 | 267 | 1.7 | 7.0 | 0.00 | 0.00 | 0.00 | 49 | 1014.2 |
| 20260504000215 | 52 | 259 | 1.7 | 7.0 | 0.00 | 0.00 | 0.00 | 48 | 1014.1 |
| 20260503235715 | 53 | 253 | 0.9 | 3.5 | 0.00 | 0.00 | 0.00 | 48 | 1014.1 |
| 20260503235220 | 53 | 252 | 1.7 | 4.3 | 0.00 | 0.00 | 0.00 | 47 | 1014.2 |
| 20260503234714 | 53 | 254 | 2.6 | 7.8 | 0.00 | 0.00 | 0.00 | 48 | 1014.1 |
| 20260503234211 | 53 | 281 | 2.6 | 7.8 | 0.00 | 0.00 | 0.00 | 43 | 1014.0 |
| 20260503233711 | 54 | 257 | 0.9 | 5.2 | 0.00 | 0.00 | 0.00 | 48 | 1013.9 |
| 20260503233216 | 54 | 259 | 1.7 | 7.0 | 0.00 | 0.00 | 0.00 | 44 | 1013.9 |
| 20260503232716 | 55 | 261 | 3.5 | 9.6 | 0.00 | 0.00 | 0.00 | 46 | 1013.9 |
| 20260503232211 | 56 | 263 | 4.3 | 9.6 | 0.00 | 0.00 | 0.00 | 44 | 1013.9 |
| 20260503231713 | 56 | 259 | 4.3 | 8.7 | 0.00 | 0.00 | 0.00 | 43 | 1013.8 |
| 20260503231210 | 57 | 244 | 5.2 | 11.3 | 0.00 | 0.00 | 0.00 | 42 | 1013.9 |
| 20260503230717 | 57 | 334 | 5.2 | 11.3 | 0.00 | 0.00 | 0.00 | 40 | 1013.7 |
| 20260503230215 | 58 | 259 | 5.2 | 14.8 | 0.00 | 0.00 | 0.00 | 41 | 1013.7 |
| 20260503225720 | 58 | 292 | 4.3 | 14.8 | 0.00 | 0.00 | 0.00 | 39 | 1013.6 |
| 20260503225215 | 58 | 322 | 5.2 | 13.9 | 0.00 | 0.00 | 0.00 | 44 | 1013.6 |
| 20260503224710 | 58 | 288 | 5.2 | 13.9 | 0.00 | 0.00 | 0.00 | 40 | 1013.6 |
| 20260503224212 | 59 | 285 | 3.5 | 9.6 | 0.00 | 0.00 | 0.00 | 41 | 1013.6 |
| 20260503223713 | 59 | 264 | 4.3 | 9.6 | 0.00 | 0.00 | 0.00 | 39 | 1013.6 |
| 20260503223214 | 59 | 306 | 4.3 | 9.6 | 0.00 | 0.00 | 0.00 | 39 | 1013.7 |
| 20260503222710 | 59 | 284 | 4.3 | 11.3 | 0.00 | 0.00 | 0.00 | 43 | 1013.8 |
| 20260503222216 | 59 | 244 | 4.3 | 11.3 | 0.00 | 0.00 | 0.00 | 40 | 1013.8 |
| 20260503221709 | 59 | 246 | 5.2 | 13.0 | 0.00 | 0.00 | 0.00 | 40 | 1013.8 |
| 20260503221212 | 59 | 269 | 6.1 | 13.0 | 0.00 | 0.00 | 0.00 | 37 | 1013.8 |
| 20260503220708 | 60 | 271 | 6.1 | 13.9 | 0.00 | 0.00 | 0.00 | 42 | 1013.9 |
| 20260503220215 | 60 | 250 | 6.1 | 13.9 | 0.00 | 0.00 | 0.00 | 43 | 1013.7 |
| 20260503215715 | 60 | 230 | 5.2 | 11.3 | 0.00 | 0.00 | 0.00 | 40 | 1013.7 |
| 20260503215211 | 60 | 282 | 4.3 | 8.7 | 0.00 | 0.00 | 0.00 | 46 | 1013.8 |
| 20260503214710 | 60 | 250 | 4.3 | 8.7 | 0.00 | 0.00 | 0.00 | 42 | 1013.8 |
| 20260503214215 | 60 | 301 | 3.5 | 8.7 | 0.00 | 0.00 | 0.00 | 42 | 1013.8 |
| 20260503213717 | 60 | 296 | 3.5 | 10.4 | 0.00 | 0.00 | 0.00 | 41 | 1013.9 |
| 20260503213207 | 60 | 290 | 3.5 | 10.4 | 0.00 | 0.00 | 0.00 | 42 | 1014.0 |
| 20260503212711 | 60 | 51 | 3.5 | 8.7 | 0.00 | 0.00 | 0.00 | 41 | 1014.0 |
| 20260503212207 | 60 | 253 | 4.3 | 9.6 | 0.00 | 0.00 | 0.00 | 41 | 1014.0 |
| 20260503211706 | 60 | 251 | 5.2 | 12.2 | 0.00 | 0.00 | 0.00 | 40 | 1013.7 |
| 20260503211207 | 60 | 234 | 6.1 | 14.8 | 0.00 | 0.00 | 0.00 | 49 | 1013.8 |
| 20260503210710 | 60 | 290 | 7.8 | 14.8 | 0.00 | 0.00 | 0.00 | 43 | 1013.7 |
| 20260503210205 | 60 | 249 | 7.0 | 14.8 | 0.00 | 0.00 | 0.00 | 45 | 1013.8 |
| 20260503205703 | 60 | 211 | 6.1 | 14.8 | 0.00 | 0.00 | 0.00 | 45 | 1013.7 |
| 20260503205204 | 59 | 258 | 6.1 | 13.9 | 0.00 | 0.00 | 0.00 | 41 | 1013.7 |
| 20260503204704 | 59 | 257 | 6.1 | 13.9 | 0.00 | 0.00 | 0.00 | 38 | 1013.8 |
| 20260503204204 | 60 | 271 | 5.2 | 13.9 | 0.00 | 0.00 | 0.00 | 43 | 1013.8 |
| 20260503203706 | 60 | 237 | 5.2 | 9.6 | 0.00 | 0.00 | 0.00 | 43 | 1013.9 |
| 20260503203207 | 59 | 270 | 4.3 | 9.6 | 0.00 | 0.00 | 0.00 | 39 | 1014.0 |
| 20260503202708 | 59 | 226 | 3.5 | 10.4 | 0.00 | 0.00 | 0.00 | 45 | 1013.9 |
| 20260503202200 | 59 | 257 | 3.5 | 10.4 | 0.00 | 0.00 | 0.00 | 41 | 1014.0 |
| 20260503201700 | 58 | 265 | 4.3 | 11.3 | 0.00 | 0.00 | 0.00 | 42 | 1014.0 |
| 20260503201203 | 58 | 341 | 5.2 | 11.3 | 0.00 | 0.00 | 0.00 | 41 | 1014.2 |
| 20260503200700 | 59 | 236 | 5.2 | 11.3 | 0.00 | 0.00 | 0.00 | 44 | 1014.2 |
| 20260503200200 | 58 | 256 | 5.2 | 15.6 | 0.00 | 0.00 | 0.00 | 46 | 1014.2 |
| 20260503195718 | 59 | 322 | 7.0 | 15.6 | 0.00 | 0.00 | 0.00 | 37 | 1014.1 |
| 20260503195205 | 59 | 288 | 7.0 | 17.4 | 0.00 | 0.00 | 0.00 | 39 | 1014.3 |
| 20260503194657 | 58 | 251 | 5.2 | 17.4 | 0.00 | 0.00 | 0.00 | 39 | 1014.4 |
| 20260503194158 | 58 | 241 | 4.3 | 12.2 | 0.00 | 0.00 | 0.00 | 50 | 1014.4 |
| 20260503193700 | 58 | 336 | 4.3 | 10.4 | 0.00 | 0.00 | 0.00 | 43 | 1014.4 |
| 20260503193158 | 58 | 338 | 4.3 | 10.4 | 0.00 | 0.00 | 0.00 | 39 | 1014.5 |
| 20260503192701 | 59 | 292 | 4.3 | 12.2 | 0.00 | 0.00 | 0.00 | 42 | 1014.6 |
| 20260503192155 | 58 | 278 | 5.2 | 12.2 | 0.00 | 0.00 | 0.00 | 45 | 1014.7 |
| 20260503191654 | 58 | 287 | 4.3 | 12.2 | 0.00 | 0.00 | 0.00 | 49 | 1014.7 |
| 20260503191155 | 58 | 251 | 5.2 | 13.0 | 0.00 | 0.00 | 0.00 | 47 | 1014.6 |
| 20260503190651 | 57 | 236 | 6.1 | 13.0 | 0.00 | 0.00 | 0.00 | 44 | 1014.7 |
| 20260503190154 | 57 | 228 | 6.1 | 13.0 | 0.00 | 0.00 | 0.00 | 50 | 1014.7 |
| 20260503185650 | 56 | 344 | 5.2 | 12.2 | 0.00 | 0.00 | 0.00 | 39 | 1014.9 |
| 20260503185154 | 56 | 330 | 4.3 | 12.2 | 0.00 | 0.00 | 0.00 | 43 | 1014.7 |
| 20260503184650 | 56 | 293 | 6.1 | 13.9 | 0.00 | 0.00 | 0.00 | 42 | 1015.1 |
| 20260503184156 | 57 | 290 | 7.0 | 17.4 | 0.00 | 0.00 | 0.00 | 41 | 1015.1 |
| 20260503183654 | 57 | 282 | 6.1 | 17.4 | 0.00 | 0.00 | 0.00 | 44 | 1015.1 |
| 20260503183156 | 57 | 259 | 5.2 | 13.0 | 0.00 | 0.00 | 0.00 | 47 | 1015.1 |
| 20260503182651 | 57 | 222 | 7.8 | 18.2 | 0.00 | 0.00 | 0.00 | 46 | 1015.1 |
| 20260503182155 | 56 | 224 | 7.8 | 18.2 | 0.00 | 0.00 | 0.00 | 53 | 1015.2 |
| 20260503181651 | 56 | 244 | 6.1 | 16.5 | 0.00 | 0.00 | 0.00 | 49 | 1015.2 |
| 20260503181153 | 55 | 263 | 5.2 | 14.8 | 0.00 | 0.00 | 0.00 | 54 | 1015.3 |
| 20260503180657 | 55 | 10 | 6.1 | 14.8 | 0.00 | 0.00 | 0.00 | 44 | 1015.3 |
| 20260503180156 | 55 | 228 | 6.1 | 13.0 | 0.00 | 0.00 | 0.00 | 44 | 1015.3 |
| 20260503175651 | 55 | 322 | 6.1 | 14.8 | 0.00 | 0.00 | 0.00 | 43 | 1015.2 |
| 20260503175148 | 55 | 267 | 6.1 | 14.8 | 0.00 | 0.00 | 0.00 | 45 | 1015.3 |
| 20260503174650 | 55 | 284 | 6.1 | 13.0 | 0.00 | 0.00 | 0.00 | 51 | 1015.4 |
| 20260503174148 | 54 | 309 | 6.1 | 13.9 | 0.00 | 0.00 | 0.00 | 50 | 1015.4 |
| 20260503173648 | 55 | 248 | 5.2 | 13.9 | 0.00 | 0.00 | 0.00 | 47 | 1015.4 |
| 20260503173153 | 55 | 246 | 7.0 | 16.5 | 0.00 | 0.00 | 0.00 | 43 | 1015.5 |
| 20260503172648 | 55 | 244 | 6.1 | 16.5 | 0.00 | 0.00 | 0.00 | 51 | 1015.5 |
| 20260503172148 | 55 | 255 | 4.3 | 14.8 | 0.00 | 0.00 | 0.00 | 54 | 1015.3 |
| 20260503171650 | 54 | 322 | 6.1 | 14.8 | 0.00 | 0.00 | 0.00 | 48 | 1015.5 |
| 20260503171148 | 54 | 261 | 7.8 | 18.2 | 0.00 | 0.00 | 0.00 | 48 | 1015.6 |
| 20260503170646 | 53 | 275 | 7.0 | 18.2 | 0.00 | 0.00 | 0.00 | 54 | 1015.4 |
| 20260503170152 | 53 | 231 | 6.1 | 13.9 | 0.00 | 0.00 | 0.00 | 51 | 1015.6 |
| 20260503160148 | 49 | 328 | 7.0 | 13.9 | 0.00 | 0.00 | 0.00 | 51 | 1016.5 |
| 20260503150640 | 47 | 289 | 7.0 | 16.5 | 0.00 | 0.00 | 0.00 | 58 | 1016.7 |
| 20260503150140 | 47 | 257 | 6.1 | 15.6 | 0.00 | 0.00 | 0.00 | 61 | 1016.6 |
| 20260503140146 | 45 | 269 | 4.3 | 12.2 | 0.00 | 0.00 | 0.00 | 62 | 1016.8 |
| 20260503131134 | 42 | 278 | 5.2 | 12.2 | 0.00 | 0.00 | 0.00 | 68 | 1016.8 |
| 20260503130636 | 42 | 282 | 4.3 | 12.2 | 0.00 | 0.00 | 0.00 | 68 | 1016.8 |
| 20260503130138 | 41 | 244 | 5.2 | 12.2 | 0.00 | 0.00 | 0.00 | 70 | 1016.6 |
| 20260503120145 | 37 | 331 | 2.6 | 8.7 | 0.00 | 0.00 | 0.00 | 73 | 1016.6 |
| 20260503110625 | 35 | 251 | 3.5 | 10.4 | 0.00 | 0.00 | 0.00 | 78 | 1015.7 |
| 20260503110125 | 35 | 341 | 3.5 | 8.7 | 0.00 | 0.00 | 0.00 | 78 | 1015.6 |